createdAt,value
2023-09-24T00:03:24.861Z,100.0
2023-09-24T00:08:24.857Z,100.0
2023-09-24T00:13:24.776Z,100.0
2023-09-24T00:18:24.818Z,100.0
2023-09-24T00:23:24.811Z,100.0
2023-09-24T00:28:24.765Z,100.0
2023-09-24T00:33:24.865Z,100.0
2023-09-24T00:38:24.817Z,100.0
2023-09-24T00:43:24.779Z,100.0
2023-09-24T00:48:24.846Z,100.0
2023-09-24T00:53:24.817Z,100.0
2023-09-24T00:58:24.778Z,100.0
2023-09-24T01:03:25.032Z,100.0
2023-09-24T01:08:24.870Z,100.0
2023-09-24T01:13:24.786Z,100.0
2023-09-24T01:18:24.864Z,100.0
2023-09-24T01:23:24.808Z,100.0
2023-09-24T01:28:24.792Z,100.0
2023-09-24T01:33:24.894Z,100.0
2023-09-24T01:38:24.822Z,100.0
2023-09-24T01:43:24.800Z,100.0
2023-09-24T01:48:24.897Z,100.0
2023-09-24T01:53:24.821Z,100.0
2023-09-24T01:58:24.820Z,100.0
2023-09-24T02:03:24.954Z,100.0
2023-09-24T02:08:24.822Z,100.0
2023-09-24T02:13:24.812Z,100.0
2023-09-24T02:18:24.918Z,100.0
2023-09-24T02:23:24.850Z,100.0
2023-09-24T02:28:24.814Z,100.0
2023-09-24T02:33:24.901Z,100.0
2023-09-24T02:38:24.818Z,100.0
2023-09-24T02:43:24.813Z,100.0
2023-09-24T02:48:24.897Z,100.0
2023-09-24T02:53:24.848Z,100.0
2023-09-24T02:58:24.813Z,100.0
2023-09-24T03:03:25.006Z,100.0
2023-09-24T03:08:24.869Z,100.0
2023-09-24T03:13:24.829Z,100.0
2023-09-24T03:18:24.871Z,100.0
2023-09-24T03:23:24.844Z,100.0
2023-09-24T03:28:24.819Z,100.0
2023-09-24T03:33:24.908Z,100.0
2023-09-24T03:38:24.855Z,100.0
2023-09-24T03:43:24.825Z,100.0
2023-09-24T03:48:24.886Z,100.0
2023-09-24T03:53:24.889Z,100.0
2023-09-24T03:58:24.838Z,100.0
2023-09-24T04:03:24.950Z,100.0
2023-09-24T04:08:25.083Z,100.0
2023-09-24T04:13:24.933Z,100.0
2023-09-24T04:18:24.988Z,100.0
2023-09-24T04:23:24.947Z,100.0
2023-09-24T04:28:24.838Z,100.0
2023-09-24T04:38:24.940Z,100.0
2023-09-24T04:43:24.846Z,100.0
2023-09-24T04:48:24.937Z,100.0
2023-09-24T04:53:24.943Z,100.0
2023-09-24T04:58:24.954Z,100.0
2023-09-24T05:03:25.176Z,100.0
2023-09-24T05:08:24.948Z,100.0
2023-09-24T05:13:24.957Z,100.0
2023-09-24T05:18:25.070Z,100.0
2023-09-24T05:23:24.949Z,100.0
2023-09-24T05:28:24.983Z,100.0
2023-09-24T05:33:25.010Z,100.0
2023-09-24T05:38:24.975Z,100.0
2023-09-24T05:43:24.958Z,100.0
2023-09-24T05:48:25.039Z,100.0
2023-09-24T05:53:24.969Z,100.0
2023-09-24T05:58:25.006Z,100.0
2023-09-24T06:03:25.079Z,100.0
2023-09-24T06:08:24.976Z,100.0
2023-09-24T06:13:24.987Z,100.0
2023-09-24T06:18:25.113Z,100.0
2023-09-24T06:23:25.207Z,100.0
2023-09-24T06:28:24.989Z,100.0
2023-09-24T06:33:24.988Z,100.0
2023-09-24T06:43:24.886Z,100.0
2023-09-24T06:48:24.980Z,100.0
2023-09-24T06:53:25.051Z,100.0
2023-09-24T06:58:24.890Z,100.0
2023-09-24T07:03:25.063Z,100.0
2023-09-24T07:08:24.921Z,100.0
2023-09-24T07:13:24.906Z,100.0
2023-09-24T07:18:24.986Z,100.0
2023-09-24T07:23:24.918Z,100.0
2023-09-24T07:28:24.907Z,100.0
2023-09-24T07:33:24.987Z,100.0
2023-09-24T07:38:24.921Z,100.0
2023-09-24T07:43:24.920Z,100.0
2023-09-24T07:48:25.072Z,100.0
2023-09-24T07:53:24.929Z,100.0
2023-09-24T07:58:24.925Z,100.0
2023-09-24T08:03:24.993Z,100.0
2023-09-24T08:08:36.373Z,100.0
2023-09-24T08:13:24.935Z,100.0
2023-09-24T08:18:25.052Z,100.0
2023-09-24T08:23:24.965Z,100.0
2023-09-24T08:28:24.947Z,100.0
2023-09-24T08:33:25.046Z,100.0
2023-09-24T08:38:24.949Z,100.0
2023-09-24T08:43:24.960Z,100.0
2023-09-24T08:48:25.045Z,100.0
2023-09-24T08:53:24.966Z,100.0
2023-09-24T08:58:24.964Z,100.0
2023-09-24T09:03:25.050Z,100.0
2023-09-24T09:08:24.972Z,100.0
2023-09-24T09:13:24.987Z,100.0
2023-09-24T09:18:25.075Z,100.0
2023-09-24T09:23:24.984Z,100.0
2023-09-24T09:28:25.000Z,99.0
2023-09-24T09:33:25.061Z,97.0
2023-09-24T09:38:24.988Z,96.5
2023-09-24T09:43:24.987Z,96.5
2023-09-24T09:48:25.107Z,94.0
2023-09-24T09:53:24.995Z,92.0
2023-09-24T09:58:26.195Z,92.0
2023-09-24T10:03:25.138Z,90.0
2023-09-24T10:08:25.006Z,89.0
2023-09-24T10:13:25.008Z,87.5
2023-09-24T10:18:25.116Z,88.0
2023-09-24T10:23:25.016Z,86.5
2023-09-24T10:28:25.085Z,85.5
2023-09-24T10:33:25.205Z,86.0
2023-09-24T10:38:25.022Z,84.0
2023-09-24T10:43:25.017Z,84.0
2023-09-24T10:48:39.853Z,81.0
2023-09-24T10:53:25.036Z,81.0
2023-09-24T10:58:25.032Z,80.0
2023-09-24T11:03:25.219Z,78.5
2023-09-24T11:08:25.034Z,77.5
2023-09-24T11:13:25.040Z,77.0
2023-09-24T11:18:25.106Z,74.0
2023-09-24T11:23:25.052Z,74.5
2023-09-24T11:28:25.045Z,75.0
2023-09-24T11:33:25.416Z,73.5
2023-09-24T11:38:25.065Z,71.0
2023-09-24T11:43:25.054Z,70.5
2023-09-24T11:48:25.170Z,68.0
2023-09-24T11:53:25.180Z,67.5
2023-09-24T11:58:25.060Z,68.0
2023-09-24T12:03:25.267Z,66.5
2023-09-24T12:08:25.069Z,67.5
2023-09-24T12:13:25.065Z,67.5
2023-09-24T12:18:25.139Z,66.5
2023-09-24T12:23:25.079Z,66.5
2023-09-24T12:28:25.096Z,64.5
2023-09-24T12:33:25.194Z,64.5
2023-09-24T12:38:25.087Z,63.0
2023-09-24T12:43:25.091Z,63.0
2023-09-24T12:48:25.177Z,63.5
2023-09-24T12:53:25.089Z,63.0
2023-09-24T12:58:25.084Z,61.0
2023-09-24T13:03:25.372Z,62.5
2023-09-24T13:08:25.103Z,61.5
2023-09-24T13:13:25.106Z,61.5
2023-09-24T13:18:25.204Z,60.5
2023-09-24T13:23:25.104Z,59.0
2023-09-24T13:28:25.105Z,59.5
2023-09-24T13:33:25.153Z,59.5
2023-09-24T13:38:25.108Z,58.0
2023-09-24T13:43:25.114Z,58.0
2023-09-24T13:48:25.185Z,56.5
2023-09-24T13:53:25.147Z,56.5
2023-09-24T13:58:25.122Z,57.0
2023-09-24T14:03:25.204Z,58.0
2023-09-24T14:08:25.122Z,58.5
2023-09-24T14:13:25.132Z,57.0
2023-09-24T14:18:25.197Z,56.5
2023-09-24T14:23:25.136Z,56.0
2023-09-24T14:28:25.136Z,56.0
2023-09-24T14:33:25.394Z,54.5
2023-09-24T14:38:25.138Z,55.5
2023-09-24T14:43:25.140Z,54.5
2023-09-24T14:48:25.260Z,54.5
2023-09-24T14:53:25.146Z,54.0
2023-09-24T14:58:25.146Z,53.5
2023-09-24T15:03:25.212Z,54.0
2023-09-24T15:08:25.142Z,53.5
2023-09-24T15:13:25.169Z,53.5
2023-09-24T15:18:25.319Z,53.5
2023-09-24T15:23:25.152Z,54.0
2023-09-24T15:28:25.166Z,53.0
2023-09-24T15:33:25.347Z,54.0
2023-09-24T15:38:25.209Z,54.5
2023-09-24T15:43:25.162Z,55.0
2023-09-24T15:48:25.236Z,55.5
2023-09-24T15:53:25.192Z,56.0
2023-09-24T15:58:25.246Z,56.0
2023-09-24T16:03:25.315Z,55.0
2023-09-24T16:08:25.175Z,56.5
2023-09-24T16:13:25.174Z,56.0
2023-09-24T16:18:25.310Z,56.5
2023-09-24T16:23:25.198Z,56.5
2023-09-24T16:28:25.185Z,57.5
2023-09-24T16:33:25.338Z,58.0
2023-09-24T16:38:25.180Z,58.0
2023-09-24T16:43:25.191Z,58.5
2023-09-24T16:48:25.299Z,59.5
2023-09-24T16:53:25.186Z,60.0
2023-09-24T16:58:25.202Z,60.5
2023-09-24T17:03:25.405Z,61.0
2023-09-24T17:08:25.192Z,61.5
2023-09-24T17:13:25.191Z,62.0
2023-09-24T17:18:25.324Z,62.0
2023-09-24T17:23:25.199Z,62.5
2023-09-24T17:28:25.195Z,63.0
2023-09-24T17:33:25.254Z,64.0
2023-09-24T17:38:25.199Z,64.5
2023-09-24T17:43:25.217Z,65.0
2023-09-24T17:48:25.346Z,66.5
2023-09-24T17:53:25.210Z,67.0
2023-09-24T17:58:25.210Z,67.5
2023-09-24T18:03:25.355Z,68.0
2023-09-24T18:08:25.220Z,68.5
2023-09-24T18:13:25.215Z,69.5
2023-09-24T18:18:25.378Z,71.0
2023-09-24T18:23:25.218Z,71.5
2023-09-24T18:28:25.224Z,72.0
2023-09-24T18:33:25.255Z,72.5
2023-09-24T18:38:25.224Z,73.5
2023-09-24T18:43:25.212Z,74.0
2023-09-24T18:48:25.257Z,75.0
2023-09-24T18:53:25.220Z,75.5
2023-09-24T18:58:25.228Z,76.0
2023-09-24T19:03:25.314Z,76.5
2023-09-24T19:08:27.008Z,77.0
2023-09-24T19:13:25.219Z,77.5
2023-09-24T19:18:25.313Z,77.5
2023-09-24T19:23:25.223Z,78.0
2023-09-24T19:28:25.222Z,78.0
2023-09-24T19:33:25.248Z,79.0
2023-09-24T19:38:25.228Z,79.0
2023-09-24T19:43:25.243Z,79.5
2023-09-24T19:48:25.322Z,79.5
2023-09-24T19:53:25.275Z,80.0
2023-09-24T19:58:25.247Z,80.5
2023-09-24T20:03:25.304Z,81.0
2023-09-24T20:08:25.246Z,81.5
2023-09-24T20:13:25.245Z,82.0
2023-09-24T20:18:25.265Z,82.5
2023-09-24T20:23:25.240Z,83.0
2023-09-24T20:28:33.759Z,83.0
2023-09-24T20:33:31.861Z,83.5
2023-09-24T20:38:25.251Z,84.0
2023-09-24T20:43:25.243Z,84.0
2023-09-24T20:48:25.356Z,85.0
2023-09-24T20:53:25.284Z,85.0
2023-09-24T20:58:25.272Z,85.5
2023-09-24T21:03:25.309Z,85.5
2023-09-24T21:08:25.268Z,86.0
2023-09-24T21:13:25.277Z,86.0
2023-09-24T21:18:25.325Z,86.5
2023-09-24T21:23:25.274Z,86.5
2023-09-24T21:28:25.269Z,86.5
2023-09-24T21:33:25.363Z,87.0
2023-09-24T21:38:25.262Z,87.0
2023-09-24T21:43:25.271Z,87.5
2023-09-24T21:48:25.357Z,87.5
2023-09-24T21:53:25.273Z,88.0
2023-09-24T21:58:25.273Z,88.0
2023-09-24T22:03:25.647Z,88.0
2023-09-24T22:08:25.281Z,88.0
2023-09-24T22:13:25.286Z,88.0
2023-09-24T22:18:25.480Z,88.0
2023-09-24T22:23:25.275Z,88.5
2023-09-24T22:28:25.285Z,88.0
2023-09-24T22:33:25.297Z,88.0
2023-09-24T22:38:25.298Z,88.0
2023-09-24T22:43:27.497Z,88.0
2023-09-24T22:48:25.346Z,88.0
2023-09-24T22:53:25.321Z,87.5
2023-09-24T22:58:25.300Z,87.5
2023-09-24T23:03:25.361Z,87.5
2023-09-24T23:08:25.297Z,88.0
2023-09-24T23:13:25.308Z,87.5
2023-09-24T23:18:25.320Z,87.5
2023-09-24T23:23:25.317Z,87.5
2023-09-24T23:28:25.310Z,87.5
2023-09-24T23:33:25.331Z,87.5
2023-09-24T23:38:25.309Z,87.5
2023-09-24T23:43:25.310Z,87.0
2023-09-24T23:48:25.325Z,87.0
2023-09-24T23:53:25.314Z,87.0
2023-09-24T23:58:25.320Z,87.0
